createdAt,value
2018-06-07T00:02:12.598Z,18.30
2018-06-07T00:04:43.808Z,19.50
2018-06-07T00:07:13.246Z,21.70
2018-06-07T00:09:44.920Z,19.33
2018-06-07T00:12:14.300Z,21.87
2018-06-07T00:14:43.923Z,23.57
2018-06-07T00:17:13.598Z,21.83
2018-06-07T00:19:43.707Z,21.77
2018-06-07T00:22:14.872Z,20.13
2018-06-07T00:24:44.357Z,22.90
2018-06-07T00:27:14.118Z,20.27
2018-06-07T00:29:45.328Z,20.30
2018-06-07T00:32:15.519Z,24.70
2018-06-07T00:34:46.942Z,24.30
2018-06-07T00:37:16.845Z,22.70
2018-06-07T00:39:49.529Z,24.33
2018-06-07T00:42:20.750Z,24.27
2018-06-07T00:44:50.827Z,35.60
2018-06-07T00:47:22.823Z,18.80
2018-06-07T00:49:52.581Z,20.70
2018-06-07T00:52:22.162Z,23.93
2018-06-07T00:54:53.344Z,24.40
2018-06-07T00:57:22.614Z,23.83
2018-06-07T00:59:51.953Z,21.33
2018-06-07T01:02:22.152Z,22.70
2018-06-07T01:04:51.811Z,21.50
2018-06-07T01:07:21.195Z,20.13
2018-06-07T01:09:50.753Z,21.10
2018-06-07T01:12:20.305Z,28.60
2018-06-07T01:14:49.568Z,25.47
2018-06-07T01:17:18.878Z,22.33
2018-06-07T01:19:48.254Z,28.80
2018-06-07T01:22:20.008Z,22.77
2018-06-07T01:24:49.468Z,23.30
2018-06-07T01:27:18.777Z,25.73
2018-06-07T01:30:00.548Z,25.17
2018-06-07T01:32:50.430Z,23.57
2018-06-07T01:35:20.076Z,25.13
2018-06-07T01:38:01.225Z,25.93
2018-06-07T01:40:32.807Z,25.20
2018-06-07T01:43:02.142Z,31.30
2018-06-07T01:45:34.106Z,22.67
2018-06-07T01:48:04.452Z,28.50
2018-06-07T01:50:34.069Z,25.63
2018-06-07T01:53:03.344Z,21.97
2018-06-07T01:55:32.606Z,20.73
2018-06-07T01:58:02.033Z,24.97
2018-06-07T02:00:31.386Z,23.97
2018-06-07T02:03:01.752Z,28.53
2018-06-07T02:05:31.088Z,23.37
2018-06-07T02:08:00.437Z,26.00
2018-06-07T02:10:29.720Z,19.47
2018-06-07T02:12:59.066Z,25.53
2018-06-07T02:15:28.336Z,27.30
2018-06-07T02:17:57.568Z,26.80
2018-06-07T02:20:26.871Z,23.30
2018-06-07T02:22:56.119Z,28.73
2018-06-07T02:25:25.449Z,27.17
2018-06-07T02:27:54.756Z,23.07
2018-06-07T02:30:24.057Z,24.50
2018-06-07T02:32:53.320Z,24.00
2018-06-07T02:35:22.654Z,23.83
2018-06-07T02:37:51.981Z,29.77
2018-06-07T02:40:21.203Z,27.43
2018-06-07T02:42:50.539Z,34.17
2018-06-07T02:45:19.774Z,28.43
2018-06-07T02:47:49.064Z,26.60
2018-06-07T02:50:18.348Z,33.03
2018-06-07T02:52:47.645Z,33.30
2018-06-07T02:55:17.001Z,29.00
2018-06-07T02:57:46.293Z,32.43
2018-06-07T03:00:33.027Z,32.93
2018-06-07T03:03:02.330Z,32.80
2018-06-07T03:05:31.811Z,26.57
2018-06-07T03:08:01.131Z,35.80
2018-06-07T03:10:30.497Z,31.90
2018-06-07T03:12:59.826Z,35.17
2018-06-07T03:15:29.075Z,37.10
2018-06-07T03:17:58.361Z,36.07
2018-06-07T03:20:27.686Z,23.90
2018-06-07T03:22:57.098Z,29.50
2018-06-07T03:25:26.485Z,30.00
2018-06-07T03:27:55.823Z,31.00
2018-06-07T03:30:25.240Z,29.17
2018-06-07T03:32:54.607Z,28.47
2018-06-07T03:35:23.985Z,30.83
2018-06-07T03:37:53.263Z,31.27
2018-06-07T03:40:22.700Z,27.73
2018-06-07T03:42:52.068Z,33.07
2018-06-07T03:45:21.370Z,31.50
2018-06-07T03:47:50.624Z,26.47
2018-06-07T03:50:19.919Z,28.93
2018-06-07T03:52:49.224Z,37.37
2018-06-07T03:55:18.511Z,51.73
2018-06-07T03:57:47.882Z,26.03
2018-06-07T04:00:17.303Z,29.57
2018-06-07T04:02:46.645Z,29.50
2018-06-07T04:05:16.040Z,28.73
2018-06-07T04:07:45.299Z,31.53
2018-06-07T04:10:14.593Z,35.70
2018-06-07T04:12:43.880Z,27.07
2018-06-07T04:15:13.197Z,24.73
2018-06-07T04:17:42.561Z,29.03
2018-06-07T04:20:11.926Z,37.60
2018-06-07T04:22:41.279Z,32.43
2018-06-07T04:25:10.653Z,25.87
2018-06-07T04:27:40.089Z,25.70
2018-06-07T04:30:10.566Z,29.40
2018-06-07T04:32:40.001Z,29.50
2018-06-07T04:35:09.398Z,26.07
2018-06-07T04:37:38.694Z,35.00
2018-06-07T04:40:08.002Z,21.27
2018-06-07T04:42:37.383Z,28.13
2018-06-07T04:45:06.661Z,25.90
2018-06-07T04:47:35.959Z,24.37
2018-06-07T04:50:05.276Z,29.43
2018-06-07T04:52:34.564Z,24.17
2018-06-07T04:55:03.989Z,20.33
2018-06-07T04:57:33.267Z,28.87
2018-06-07T05:00:02.668Z,24.70
2018-06-07T05:02:32.075Z,18.93
2018-06-07T05:05:01.330Z,25.97
2018-06-07T05:07:30.812Z,16.77
2018-06-07T05:10:00.125Z,19.87
2018-06-07T05:12:29.609Z,17.00
2018-06-07T05:14:58.953Z,19.57
2018-06-07T05:17:28.323Z,18.43
2018-06-07T05:19:57.739Z,16.30
2018-06-07T05:22:27.033Z,19.30
2018-06-07T05:24:56.441Z,16.90
2018-06-07T05:27:26.028Z,22.13
2018-06-07T05:29:55.306Z,25.10
2018-06-07T05:32:24.609Z,21.47
2018-06-07T05:34:54.060Z,21.50
2018-06-07T05:37:23.441Z,13.93
2018-06-07T05:39:52.821Z,18.50
2018-06-07T05:42:22.160Z,17.43
2018-06-07T05:44:51.618Z,21.57
2018-06-07T05:47:21.185Z,17.37
2018-06-07T05:49:50.585Z,13.90
2018-06-07T05:52:19.902Z,17.13
2018-06-07T05:54:49.226Z,16.67
2018-06-07T05:57:18.529Z,23.10
2018-06-07T05:59:47.832Z,30.70
2018-06-07T06:02:17.254Z,16.73
2018-06-07T06:04:46.626Z,20.47
2018-06-07T06:07:15.963Z,16.83
2018-06-07T06:09:45.431Z,23.10
2018-06-07T06:12:14.704Z,14.47
2018-06-07T06:14:44.833Z,21.20
2018-06-07T06:17:14.242Z,18.63
2018-06-07T06:19:43.632Z,16.47
2018-06-07T06:22:12.943Z,24.70
2018-06-07T06:24:42.439Z,24.57
2018-06-07T06:27:11.832Z,15.70
2018-06-07T06:29:41.361Z,20.30
2018-06-07T06:32:10.794Z,14.83
2018-06-07T06:34:40.199Z,14.83
2018-06-07T06:37:09.490Z,17.17
2018-06-07T06:39:39.113Z,14.67
2018-06-07T06:42:08.401Z,14.50
2018-06-07T06:44:37.749Z,14.13
2018-06-07T06:47:07.153Z,12.83
2018-06-07T06:49:36.442Z,16.27
2018-06-07T06:52:05.862Z,13.27
2018-06-07T06:54:35.252Z,17.20
2018-06-07T06:57:06.570Z,22.70
2018-06-07T06:59:36.069Z,13.07
2018-06-07T07:02:05.379Z,18.23
2018-06-07T07:04:34.853Z,15.73
2018-06-07T07:07:04.136Z,20.37
2018-06-07T07:09:33.554Z,15.27
2018-06-07T07:12:02.881Z,16.07
2018-06-07T07:14:38.915Z,18.20
2018-06-07T07:17:08.417Z,16.50
2018-06-07T07:19:37.820Z,13.70
2018-06-07T07:22:07.438Z,15.57
2018-06-07T07:24:36.731Z,17.90
2018-06-07T07:27:06.151Z,13.00
2018-06-07T07:29:35.576Z,14.50
2018-06-07T07:32:04.997Z,11.70
2018-06-07T07:34:34.357Z,12.83
2018-06-07T07:37:03.683Z,19.20
2018-06-07T07:39:33.089Z,12.20
2018-06-07T07:42:02.590Z,13.73
2018-06-07T07:44:32.236Z,19.83
2018-06-07T07:47:01.542Z,15.17
2018-06-07T07:49:30.934Z,15.57
2018-06-07T07:52:00.487Z,14.20
2018-06-07T07:54:29.912Z,14.37
2018-06-07T07:56:59.320Z,20.33
2018-06-07T07:59:28.897Z,13.80
2018-06-07T08:01:58.267Z,16.73
2018-06-07T08:04:27.593Z,12.90
2018-06-07T08:06:57.095Z,9.70
2018-06-07T08:09:26.588Z,10.90
2018-06-07T08:11:57.256Z,12.30
2018-06-07T08:14:26.711Z,13.37
2018-06-07T08:16:56.443Z,17.33
2018-06-07T08:19:25.861Z,14.80
2018-06-07T08:21:55.247Z,16.27
2018-06-07T08:24:26.352Z,16.47
2018-06-07T08:26:58.927Z,15.80
2018-06-07T08:29:28.392Z,13.83
2018-06-07T08:31:58.205Z,12.43
2018-06-07T08:34:31.184Z,13.87
2018-06-07T08:37:00.513Z,15.27
2018-06-07T08:39:29.985Z,23.30
2018-06-07T08:41:59.266Z,18.10
2018-06-07T08:44:28.597Z,21.90
2018-06-07T08:47:02.232Z,17.40
2018-06-07T08:49:31.994Z,14.37
2018-06-07T08:52:01.315Z,21.17
2018-06-07T08:54:30.904Z,13.60
2018-06-07T08:57:00.509Z,12.43
2018-06-07T08:59:32.728Z,10.27
2018-06-07T09:02:02.308Z,10.97
2018-06-07T09:04:31.913Z,9.10
2018-06-07T09:07:04.434Z,14.10
2018-06-07T09:09:33.912Z,10.23
2018-06-07T09:12:03.514Z,8.80
2018-06-07T09:14:32.856Z,8.97
2018-06-07T09:17:06.205Z,8.47
2018-06-07T09:19:35.893Z,7.80
2018-06-07T09:22:08.109Z,10.00
2018-06-07T09:24:41.037Z,12.80
2018-06-07T09:27:10.350Z,11.80
2018-06-07T09:29:40.146Z,7.80
2018-06-07T09:32:15.676Z,9.03
2018-06-07T09:34:47.464Z,9.17
2018-06-07T09:37:20.144Z,10.40
2018-06-07T09:42:18.862Z,8.20
2018-06-07T09:44:48.405Z,11.40
2018-06-07T09:47:22.168Z,7.70
2018-06-07T09:49:51.463Z,9.10
2018-06-07T09:52:20.874Z,13.10
2018-06-07T09:54:50.388Z,7.23
2018-06-07T09:57:19.909Z,20.30
2018-06-07T09:59:49.497Z,10.23
2018-06-07T10:02:19.647Z,6.53
2018-06-07T10:04:49.199Z,9.20
2018-06-07T10:07:18.768Z,10.23
2018-06-07T10:09:48.195Z,9.77
2018-06-07T10:12:17.876Z,7.87
2018-06-07T10:14:47.452Z,8.60
2018-06-07T10:17:16.874Z,7.87
2018-06-07T10:19:46.167Z,8.53
2018-06-07T10:22:18.896Z,7.37
2018-06-07T10:24:50.214Z,7.00
2018-06-07T10:27:19.787Z,7.60
2018-06-07T10:29:51.529Z,7.60
2018-06-07T10:32:27.427Z,12.67
2018-06-07T10:35:01.978Z,8.40
2018-06-07T10:37:33.085Z,9.57
2018-06-07T10:40:02.563Z,9.37
2018-06-07T10:42:31.987Z,8.73
2018-06-07T10:45:01.579Z,9.13
2018-06-07T10:47:30.962Z,12.77
2018-06-07T10:50:00.347Z,10.93
2018-06-07T10:52:29.673Z,10.90
2018-06-07T10:54:59.270Z,9.20
2018-06-07T10:57:28.833Z,8.17
2018-06-07T10:59:58.238Z,10.00
2018-06-07T11:02:27.527Z,8.67
2018-06-07T11:04:57.972Z,11.63
2018-06-07T11:07:27.573Z,7.97
2018-06-07T11:09:57.115Z,7.23
2018-06-07T11:12:26.466Z,9.13
2018-06-07T11:14:56.005Z,10.37
2018-06-07T11:17:25.506Z,8.20
2018-06-07T11:19:55.121Z,10.30
2018-06-07T11:22:24.497Z,9.47
2018-06-07T11:24:53.896Z,11.77
2018-06-07T11:27:23.838Z,14.53
2018-06-07T11:29:53.280Z,9.20
2018-06-07T11:32:22.822Z,8.70
2018-06-07T11:34:52.381Z,8.53
2018-06-07T11:37:21.807Z,10.70
2018-06-07T11:39:51.191Z,9.47
2018-06-07T11:42:20.596Z,18.60
2018-06-07T11:44:50.057Z,9.40
2018-06-07T11:47:19.546Z,9.50
2018-06-07T11:49:48.868Z,11.43
2018-06-07T11:52:18.506Z,16.70
2018-06-07T11:54:48.052Z,9.20
2018-06-07T11:57:17.502Z,8.67
2018-06-07T11:59:48.019Z,15.13
2018-06-07T12:02:17.513Z,20.93
2018-06-07T12:04:47.179Z,8.87
2018-06-07T12:07:16.479Z,8.60
2018-06-07T12:09:45.946Z,9.17
2018-06-07T12:12:15.348Z,11.57
2018-06-07T12:14:48.834Z,9.53
2018-06-07T12:17:18.960Z,8.60
2018-06-07T12:19:48.662Z,10.53
2018-06-07T12:22:18.820Z,8.90
2018-06-07T12:24:49.164Z,11.70
2018-06-07T12:27:18.952Z,19.03
2018-06-07T12:29:48.586Z,10.53
2018-06-07T12:32:18.302Z,8.83
2018-06-07T12:34:48.345Z,11.70
2018-06-07T12:37:17.814Z,13.40
2018-06-07T12:39:47.234Z,11.73
2018-06-07T12:42:16.814Z,8.67
2018-06-07T12:44:46.195Z,13.53
2018-06-07T12:47:15.525Z,8.50
2018-06-07T12:49:45.167Z,8.00
2018-06-07T12:52:14.594Z,8.67
2018-06-07T12:54:44.139Z,12.00
2018-06-07T12:57:14.467Z,9.47
2018-06-07T12:59:45.666Z,7.87
2018-06-07T13:02:20.613Z,8.50
2018-06-07T13:04:50.094Z,9.43
2018-06-07T13:07:19.725Z,7.93
2018-06-07T13:09:51.684Z,8.90
2018-06-07T13:12:22.702Z,8.50
2018-06-07T13:14:52.903Z,10.73
2018-06-07T13:17:27.184Z,10.10
2018-06-07T13:19:58.136Z,9.67
2018-06-07T13:22:30.550Z,7.63
2018-06-07T13:25:02.050Z,10.97
2018-06-07T13:27:31.590Z,10.03
2018-06-07T13:30:01.989Z,18.87
2018-06-07T13:32:31.548Z,15.27
2018-06-07T13:35:00.906Z,10.60
2018-06-07T13:37:30.341Z,13.63
2018-06-07T13:39:59.914Z,11.23
2018-06-07T13:42:29.392Z,8.87
2018-06-07T13:44:58.873Z,12.33
2018-06-07T13:47:28.221Z,9.10
2018-06-07T13:49:58.135Z,10.30
2018-06-07T13:52:27.600Z,10.10
2018-06-07T13:54:57.146Z,10.17
2018-06-07T13:57:26.538Z,8.73
2018-06-07T13:59:56.031Z,13.10
2018-06-07T14:02:25.632Z,11.87
2018-06-07T14:04:55.034Z,11.10
2018-06-07T14:07:24.411Z,16.27
2018-06-07T14:09:54.190Z,9.83
2018-06-07T14:12:24.002Z,11.73
2018-06-07T14:14:53.578Z,11.70
2018-06-07T14:17:23.235Z,10.90
2018-06-07T14:19:52.648Z,12.50
2018-06-07T14:22:22.106Z,9.53
2018-06-07T14:24:51.756Z,10.37
2018-06-07T14:27:21.298Z,9.97
2018-06-07T14:29:50.986Z,10.23
2018-06-07T14:32:20.452Z,10.57
2018-06-07T14:34:49.837Z,10.83
2018-06-07T14:37:19.684Z,10.13
2018-06-07T14:39:49.310Z,11.47
2018-06-07T14:42:18.901Z,9.90
2018-06-07T14:44:49.446Z,11.00
2018-06-07T14:47:19.604Z,13.40
2018-06-07T14:49:49.510Z,14.00
2018-06-07T14:52:19.050Z,13.17
2018-06-07T14:54:48.661Z,13.77
2018-06-07T14:57:18.412Z,12.10
2018-06-07T14:59:48.091Z,22.27
2018-06-07T15:02:17.905Z,19.23
2018-06-07T15:04:48.231Z,33.77
2018-06-07T15:07:18.477Z,31.77
2018-06-07T15:09:48.636Z,60.97
2018-06-07T15:12:18.036Z,28.27
2018-06-07T15:14:47.475Z,36.03
2018-06-07T15:17:16.795Z,26.03
2018-06-07T15:19:46.587Z,29.50
2018-06-07T15:22:16.083Z,21.97
2018-06-07T15:24:45.557Z,22.43
2018-06-07T15:27:14.895Z,21.30
2018-06-07T15:29:44.381Z,24.43
2018-06-07T15:32:14.971Z,27.63
2018-06-07T15:34:45.123Z,23.77
2018-06-07T15:37:14.531Z,23.90
2018-06-07T15:39:44.420Z,28.27
2018-06-07T15:42:14.077Z,21.77
2018-06-07T15:44:43.742Z,26.83
2018-06-07T15:47:13.090Z,30.70
2018-06-07T15:49:42.511Z,28.33
2018-06-07T15:52:11.896Z,35.03
2018-06-07T15:54:41.763Z,26.40
2018-06-07T15:57:11.610Z,26.23
2018-06-07T15:59:41.043Z,33.27
2018-06-07T16:02:10.760Z,31.97
2018-06-07T16:04:40.204Z,31.10
2018-06-07T16:07:09.654Z,31.77
2018-06-07T16:09:38.979Z,39.03
2018-06-07T16:12:08.660Z,36.93
2018-06-07T16:14:38.020Z,38.03
2018-06-07T16:17:07.679Z,40.83
2018-06-07T16:19:37.068Z,42.33
2018-06-07T16:22:06.706Z,39.40
2018-06-07T16:24:36.319Z,30.53
2018-06-07T16:27:06.303Z,33.67
2018-06-07T16:29:35.833Z,22.37
2018-06-07T16:32:05.433Z,27.47
2018-06-07T16:34:39.015Z,28.63
2018-06-07T16:37:18.741Z,22.13
2018-06-07T16:39:50.845Z,25.70
2018-06-07T16:42:21.877Z,32.50
2018-06-07T16:44:51.363Z,27.20
2018-06-07T16:47:20.884Z,34.90
2018-06-07T16:49:50.245Z,28.30
2018-06-07T16:52:20.346Z,27.30
2018-06-07T16:54:49.717Z,27.70
2018-06-07T16:57:19.353Z,33.03
2018-06-07T16:59:49.038Z,30.90
2018-06-07T17:02:18.385Z,33.90
2018-06-07T17:04:47.787Z,32.07
2018-06-07T17:07:17.142Z,29.60
2018-06-07T17:09:46.617Z,29.53
2018-06-07T17:12:16.045Z,26.47
2018-06-07T17:14:45.347Z,36.17
2018-06-07T17:17:14.781Z,22.80
2018-06-07T17:19:44.081Z,22.57
2018-06-07T17:22:13.569Z,21.03
2018-06-07T17:24:42.896Z,21.37
2018-06-07T17:27:12.347Z,33.43
2018-06-07T17:29:41.892Z,23.70
2018-06-07T17:32:11.525Z,22.47
2018-06-07T17:34:41.149Z,22.33
2018-06-07T17:37:10.473Z,24.83
2018-06-07T17:39:39.732Z,22.50
2018-06-07T17:42:09.256Z,21.47
2018-06-07T17:44:38.657Z,26.27
2018-06-07T17:47:08.036Z,24.07
2018-06-07T17:49:37.386Z,23.77
2018-06-07T17:52:06.992Z,22.60
2018-06-07T17:54:36.660Z,18.43
2018-06-07T17:57:06.185Z,21.10
2018-06-07T17:59:36.564Z,25.03
2018-06-07T18:02:06.025Z,20.30
2018-06-07T18:04:35.512Z,22.40
2018-06-07T18:07:05.098Z,24.10
2018-06-07T18:09:34.534Z,22.87
2018-06-07T18:12:04.076Z,21.10
2018-06-07T18:14:33.659Z,16.90
2018-06-07T18:17:03.102Z,14.67
2018-06-07T18:19:32.485Z,20.30
2018-06-07T18:22:01.963Z,17.00
2018-06-07T18:24:31.559Z,13.90
2018-06-07T18:27:01.025Z,14.20
2018-06-07T18:29:30.634Z,14.10
2018-06-07T18:31:59.973Z,18.17
2018-06-07T18:34:29.293Z,18.40
2018-06-07T18:36:58.581Z,15.93
2018-06-07T18:39:28.009Z,22.20
2018-06-07T18:41:57.407Z,15.33
2018-06-07T18:44:26.790Z,22.63
2018-06-07T18:46:56.236Z,18.27
2018-06-07T18:49:25.758Z,18.20
2018-06-07T18:51:55.349Z,19.40
2018-06-07T18:54:24.896Z,16.37
2018-06-07T18:56:54.427Z,17.03
2018-06-07T18:59:24.014Z,23.37
2018-06-07T19:01:53.479Z,17.77
2018-06-07T19:04:22.912Z,19.80
2018-06-07T19:06:52.423Z,21.83
2018-06-07T19:09:27.591Z,25.90
2018-06-07T19:11:57.158Z,25.53
2018-06-07T19:14:32.812Z,23.50
2018-06-07T19:17:02.282Z,28.53
2018-06-07T19:19:37.225Z,25.40
2018-06-07T19:22:06.569Z,24.83
2018-06-07T19:24:36.151Z,34.10
2018-06-07T19:27:17.808Z,27.37
2018-06-07T19:29:47.201Z,27.00
2018-06-07T19:32:22.185Z,26.70
2018-06-07T19:34:56.894Z,28.70
2018-06-07T19:37:26.459Z,24.87
2018-06-07T19:40:01.206Z,23.70
2018-06-07T19:42:30.710Z,23.53
2018-06-07T19:45:00.035Z,26.23
2018-06-07T19:47:29.493Z,23.57
2018-06-07T19:49:58.922Z,20.70
2018-06-07T19:52:28.235Z,23.17
2018-06-07T19:54:57.623Z,20.83
2018-06-07T19:57:26.904Z,17.70
2018-06-07T19:59:56.481Z,21.50
2018-06-07T20:02:29.569Z,27.57
2018-06-07T20:05:01.515Z,19.97
2018-06-07T20:07:31.577Z,22.60
2018-06-07T20:10:01.210Z,24.60
2018-06-07T20:12:30.564Z,32.10
2018-06-07T20:15:00.112Z,22.83
2018-06-07T20:17:31.038Z,24.27
2018-06-07T20:20:03.456Z,24.43
2018-06-07T20:22:33.734Z,28.47
2018-06-07T20:25:03.121Z,31.83
2018-06-07T20:27:35.125Z,30.50
2018-06-07T20:30:04.664Z,27.13
2018-06-07T20:32:34.086Z,30.60
2018-06-07T20:35:03.531Z,34.50
2018-06-07T20:37:36.385Z,32.50
2018-06-07T20:40:09.246Z,30.00
2018-06-07T20:42:40.753Z,39.87
2018-06-07T20:45:11.609Z,31.50
2018-06-07T20:47:41.793Z,29.57
2018-06-07T20:50:14.234Z,34.70
2018-06-07T20:52:45.355Z,36.53
2018-06-07T20:55:16.634Z,37.97
2018-06-07T20:57:46.112Z,29.50
2018-06-07T21:00:15.448Z,28.37
2018-06-07T21:02:45.132Z,31.67
2018-06-07T21:05:14.739Z,34.00
2018-06-07T21:07:44.085Z,33.53
2018-06-07T21:10:13.425Z,31.87
2018-06-07T21:12:43.073Z,34.93
2018-06-07T21:15:13.730Z,43.03
2018-06-07T21:17:47.137Z,47.57
2018-06-07T21:20:18.147Z,35.97
2018-06-07T21:22:50.303Z,35.60
2018-06-07T21:25:19.660Z,44.37
2018-06-07T21:27:50.961Z,36.47
2018-06-07T21:30:21.945Z,37.27
2018-06-07T21:32:52.122Z,37.90
2018-06-07T21:35:22.725Z,34.47
2018-06-07T21:37:55.096Z,36.67
2018-06-07T21:40:25.592Z,35.20
2018-06-07T21:42:57.532Z,35.37
2018-06-07T21:45:27.097Z,34.90
2018-06-07T21:47:57.214Z,33.77
2018-06-07T21:50:26.841Z,32.50
2018-06-07T21:52:56.299Z,32.30
2018-06-07T21:55:25.634Z,31.23
2018-06-07T21:57:55.111Z,39.77
2018-06-07T22:00:24.527Z,31.07
2018-06-07T22:02:53.929Z,34.47
2018-06-07T22:05:23.330Z,41.07
2018-06-07T22:07:52.642Z,37.90
2018-06-07T22:10:21.873Z,31.50
2018-06-07T22:12:51.101Z,40.50
2018-06-07T22:15:20.494Z,32.67
2018-06-07T22:17:49.885Z,40.37
2018-06-07T22:20:19.367Z,42.77
2018-06-07T22:22:48.777Z,36.63
2018-06-07T22:25:18.043Z,40.83
2018-06-07T22:27:47.312Z,37.33
2018-06-07T22:30:16.602Z,37.67
2018-06-07T22:32:45.921Z,39.40
2018-06-07T22:35:15.140Z,41.93
2018-06-07T22:37:44.397Z,39.77
2018-06-07T22:40:13.635Z,32.77
2018-06-07T22:42:42.945Z,33.40
2018-06-07T22:45:12.404Z,44.23
2018-06-07T22:47:41.728Z,35.43
2018-06-07T22:50:11.077Z,38.50
2018-06-07T22:52:40.597Z,37.40
2018-06-07T22:55:09.964Z,31.70
2018-06-07T22:57:39.265Z,36.17
2018-06-07T23:00:08.702Z,36.57
2018-06-07T23:02:42.222Z,31.00
2018-06-07T23:05:11.415Z,36.17
2018-06-07T23:07:40.581Z,38.57
2018-06-07T23:10:09.997Z,36.90
2018-06-07T23:12:39.298Z,33.23
2018-06-07T23:15:08.557Z,45.80
2018-06-07T23:17:37.872Z,34.17
2018-06-07T23:20:07.147Z,38.07
2018-06-07T23:22:36.500Z,33.87
2018-06-07T23:25:05.812Z,40.40
2018-06-07T23:27:35.085Z,43.27
2018-06-07T23:30:04.492Z,37.57
2018-06-07T23:32:33.825Z,35.60
2018-06-07T23:35:03.171Z,35.60
2018-06-07T23:37:32.514Z,39.97
2018-06-07T23:40:01.839Z,42.57
2018-06-07T23:42:31.237Z,39.70
2018-06-07T23:45:00.607Z,39.17
2018-06-07T23:47:30.121Z,38.43
2018-06-07T23:49:59.458Z,39.50
2018-06-07T23:52:28.790Z,39.80
2018-06-07T23:54:58.136Z,38.97
2018-06-07T23:57:27.511Z,36.50
2018-06-07T23:59:56.835Z,41.80
